Time;durP1;ratioP1;P1;durP2;ratioP2;P2;SDS_P1;SDS_P2;PMS_P1;PMS_P2;Temp;Humidity;BMP_temperature;BMP_pressure;BME280_temperature;BME280_humidity;BME280_pressure;Samples;Min_cycle;Max_cycle;Signal;HPM_P1;HPM_P2
2024/01/12 00:03:12;;;;;;;53.83;34.10;;;-5.40;99.90;;;-4.95;93.54;99199.16;10472981;28;20231;-64
2024/01/12 00:08:15;;;;;;;49.60;33.97;;;-5.60;99.90;;;-4.96;93.57;99200.78;10470710;28;20285;-64
2024/01/12 00:13:20;;;;;;;50.43;33.40;;;-5.60;99.90;;;-4.98;94.11;99204.63;10464800;28;20346;-65
2024/01/12 00:18:23;;;;;;;50.73;32.83;;;-5.60;99.90;;;-5.01;94.10;99202.66;10438801;28;20721;-63
2024/01/12 00:23:26;;;;;;;48.20;32.50;;;-5.60;99.90;;;-4.93;93.95;99207.78;10402412;28;20247;-63
2024/01/12 00:28:32;;;;;;;49.00;31.53;;;-5.60;99.90;;;-4.97;94.26;99211.44;10401869;28;20225;-64
2024/01/12 00:33:35;;;;;;;51.30;33.43;;;-5.70;99.90;;;-4.99;94.01;99211.22;10452749;28;20232;-63
2024/01/12 00:38:38;;;;;;;44.53;32.20;;;-5.60;99.90;;;-4.89;93.05;99212.47;10471199;28;20222;-64
2024/01/12 00:43:43;;;;;;;50.20;33.67;;;-5.60;99.90;;;-5.07;93.01;99211.75;10422632;28;20809;-64
2024/01/12 00:48:46;;;;;;;55.13;34.93;;;-5.70;99.90;;;-5.20;92.76;99213.25;10403729;28;20347;-64
2024/01/12 00:53:49;;;;;;;50.27;33.43;;;-5.80;99.90;;;-5.17;94.26;99217.75;10452015;28;20318;-64
2024/01/12 00:58:54;;;;;;;50.33;33.80;;;-5.80;99.90;;;-5.20;92.30;99208.28;10466347;28;20222;-64
2024/01/12 01:03:57;;;;;;;50.77;34.83;;;-5.80;99.90;;;-5.22;93.26;99207.16;10464443;28;20246;-64
2024/01/12 01:09:00;;;;;;;53.90;33.63;;;-5.80;99.90;;;-5.18;93.94;99221.81;10429200;28;20248;-64
2024/01/12 01:14:05;;;;;;;56.40;35.20;;;-5.80;99.90;;;-5.11;92.77;99229.47;10405787;28;20226;-65
2024/01/12 01:19:08;;;;;;;54.23;34.77;;;-5.80;99.90;;;-5.23;93.85;99225.28;10403224;28;20234;-65
2024/01/12 01:24:11;;;;;;;50.33;32.37;;;-5.80;99.90;;;-5.33;93.94;99229.66;10404691;28;20372;-64
2024/01/12 01:29:16;;;;;;;54.40;33.60;;;-5.90;99.90;;;-5.28;93.50;99227.13;10403123;28;20243;-64
2024/01/12 01:34:19;;;;;;;49.63;33.33;;;-5.90;99.90;;;-5.27;93.71;99228.03;10403048;28;20234;-64
2024/01/12 01:39:22;;;;;;;48.40;31.70;;;-5.90;99.90;;;-5.34;92.95;99221.28;10399294;28;20702;-64
2024/01/12 01:44:27;;;;;;;49.50;32.70;;;-6.00;99.90;;;-5.39;92.71;99222.22;10400570;28;20229;-64
2024/01/12 01:49:30;;;;;;;52.53;33.70;;;-6.00;99.90;;;-5.37;92.55;99229.94;10401373;28;20223;-64
2024/01/12 01:54:34;;;;;;;58.20;34.90;;;-6.00;99.90;;;-5.52;92.49;99229.59;10402018;28;20252;-65
2024/01/12 01:59:38;;;;;;;52.77;32.97;;;-6.10;99.90;;;-5.48;93.17;99220.97;10400670;28;20743;-65
2024/01/12 02:04:41;;;;;;;54.53;33.70;;;-6.10;99.90;;;-5.52;92.26;99219.63;10401364;28;20231;-64
2024/01/12 02:09:45;;;;;;;48.93;33.33;;;-6.10;99.90;;;-5.53;92.59;99222.78;10401930;28;20368;-65
2024/01/12 02:14:50;;;;;;;50.20;32.20;;;-6.10;99.90;;;-5.55;93.42;99233.22;10396494;28;20231;-65
2024/01/12 02:19:58;;;;;;;47.40;31.67;;;-6.20;99.90;;;-5.52;93.50;99219.63;10401138;28;20245;-64
2024/01/12 02:25:04;;;;;;;48.87;33.17;;;-6.20;99.90;;;-5.51;92.99;99231.38;10400228;28;20923;-64
2024/01/12 02:30:09;;;;;;;48.17;32.23;;;-6.20;99.90;;;-5.59;91.78;99221.94;10423699;28;20358;-65
2024/01/12 02:35:12;;;;;;;51.87;33.73;;;-6.30;99.90;;;-5.64;92.24;99210.44;10412901;28;20230;-65
2024/01/12 02:40:17;;;;;;;49.90;32.87;;;-6.30;99.90;;;-5.67;92.06;99210.00;10462848;28;20757;-65
2024/01/12 02:45:20;;;;;;;51.40;33.10;;;-6.30;99.90;;;-5.70;93.61;99207.97;10438312;28;20228;-65
2024/01/12 02:50:24;;;;;;;47.17;31.07;;;-6.30;99.90;;;-5.70;93.04;99207.97;10432987;28;20673;-65
2024/01/12 02:55:28;;;;;;;50.23;33.17;;;-6.30;99.90;;;-5.72;92.11;99196.91;10404436;28;20230;-65
2024/01/12 03:00:31;;;;;;;51.80;33.97;;;-6.30;99.90;;;-5.70;92.05;99200.50;10464121;28;20232;-63
2024/01/12 03:05:34;;;;;;;50.00;33.57;;;-6.40;99.90;;;-5.68;92.84;99198.25;10459018;28;20229;-63
2024/01/12 03:10:39;;;;;;;57.53;34.33;;;-6.30;99.90;;;-5.70;92.91;99198.00;10430391;28;20271;-63
2024/01/12 03:15:42;;;;;;;58.00;33.90;;;-6.40;99.90;;;-5.83;91.99;99201.09;10427452;28;20234;-63
2024/01/12 03:20:45;;;;;;;51.93;33.13;;;-6.40;99.90;;;-5.85;91.12;99190.91;10424543;28;20511;-63
2024/01/12 03:25:50;;;;;;;53.93;32.97;;;-6.50;99.90;;;-5.85;93.12;99200.84;10401518;28;20223;-63
2024/01/12 03:30:53;;;;;;;51.57;33.27;;;-6.50;99.90;;;-5.93;92.94;99204.75;10407843;28;20222;-63
2024/01/12 03:35:56;;;;;;;54.63;33.33;;;-6.50;99.90;;;-5.94;92.16;99202.97;10402600;28;20867;-63
2024/01/12 03:41:01;;;;;;;47.27;32.87;;;-6.50;99.90;;;-6.00;92.32;99209.59;10409114;28;20310;-63
2024/01/12 03:46:05;;;;;;;51.30;32.97;;;-6.50;99.90;;;-5.92;91.74;99213.13;10400939;28;20718;-63
2024/01/12 03:51:08;;;;;;;52.13;34.47;;;-6.50;99.90;;;-5.99;92.15;99223.81;10406462;28;20827;-63
2024/01/12 03:56:12;;;;;;;54.63;34.87;;;-6.60;99.90;;;-6.08;92.92;99220.03;10405030;28;20740;-63
2024/01/12 04:01:16;;;;;;;53.40;34.80;;;-6.60;99.90;;;-6.04;92.71;99219.78;10423098;28;20688;-66
2024/01/12 04:06:20;;;;;;;52.50;33.60;;;-6.60;99.90;;;-5.99;93.83;99220.44;10471017;28;20220;-63
2024/01/12 04:11:25;;;;;;;55.07;35.27;;;-6.60;99.90;;;-5.96;92.93;99230.81;10467329;28;20656;-63
2024/01/12 04:16:28;;;;;;;55.90;34.13;;;-6.60;99.90;;;-5.95;92.69;99227.63;10471444;28;20346;-63
2024/01/12 04:21:31;;;;;;;54.33;33.00;;;-6.60;99.90;;;-5.93;92.63;99224.66;10469569;28;20225;-63
2024/01/12 04:26:36;;;;;;;50.47;33.27;;;-6.50;99.90;;;-5.90;92.45;99220.09;10462319;28;20736;-63
2024/01/12 04:31:40;;;;;;;54.80;33.83;;;-6.50;99.90;;;-5.92;93.61;99223.09;10431556;28;20238;-67
2024/01/12 04:36:44;;;;;;;55.83;34.70;;;-6.60;99.90;;;-5.98;92.39;99228.13;10407701;28;20305;-63
2024/01/12 04:41:48;;;;;;;50.90;33.10;;;-6.60;99.90;;;-6.08;93.16;99221.63;10448849;28;20240;-63
2024/01/12 04:46:52;;;;;;;54.63;34.57;;;-6.70;99.90;;;-6.03;91.66;99219.09;10469170;28;20224;-64
2024/01/12 04:51:55;;;;;;;49.90;33.53;;;-6.70;99.90;;;-6.12;91.87;99221.19;10424056;28;20233;-64
2024/01/12 04:56:59;;;;;;;55.33;34.80;;;-6.70;99.90;;;-6.11;91.99;99222.09;10405911;28;20226;-64
2024/01/12 05:02:03;;;;;;;54.17;34.73;;;-6.70;99.90;;;-6.09;91.68;99227.25;10428499;28;20235;-65
2024/01/12 05:07:06;;;;;;;55.80;33.93;;;-6.70;99.90;;;-6.16;91.71;99242.91;10439653;28;20250;-64
2024/01/12 05:12:11;;;;;;;51.13;33.17;;;-6.80;99.90;;;-6.21;92.35;99241.34;10458037;28;20790;-65
2024/01/12 05:17:14;;;;;;;55.30;33.77;;;-6.80;99.90;;;-6.32;92.60;99246.38;10446446;28;20701;-63
2024/01/12 05:22:17;;;;;;;50.30;32.87;;;-6.90;99.90;;;-6.33;91.95;99254.53;10459996;28;20220;-64
2024/01/12 05:27:22;;;;;;;51.07;34.13;;;-6.90;99.90;;;-6.37;90.92;99243.25;10445920;28;20235;-64
2024/01/12 05:32:25;;;;;;;56.93;34.73;;;-6.90;99.90;;;-6.30;91.70;99252.47;10403849;28;20226;-65
2024/01/12 05:37:28;;;;;;;49.90;33.93;;;-6.90;99.90;;;-6.27;91.12;99255.41;10460416;28;20233;-65
2024/01/12 05:42:32;;;;;;;50.47;35.70;;;-6.80;99.90;;;-6.32;92.53;99263.78;10444146;28;20371;-64
2024/01/12 05:47:36;;;;;;;54.47;35.13;;;-6.90;99.90;;;-6.35;92.58;99256.81;10467432;28;20221;-64
2024/01/12 05:52:39;;;;;;;63.70;36.67;;;-6.80;99.90;;;-6.25;91.69;99254.03;10422177;28;20237;-63
2024/01/12 05:57:44;;;;;;;54.43;34.90;;;-6.80;99.90;;;-6.30;92.55;99250.00;10417124;28;20235;-65
2024/01/12 06:02:47;;;;;;;51.43;34.83;;;-6.90;99.90;;;-6.33;91.66;99250.44;10418129;28;20221;-66
2024/01/12 06:07:50;;;;;;;57.33;34.83;;;-6.90;99.90;;;-6.28;92.41;99243.66;10430081;28;20228;-65
2024/01/12 06:12:55;;;;;;;59.10;36.73;;;-6.90;99.90;;;-6.36;91.08;99247.53;10424005;28;20608;-65
2024/01/12 06:17:59;;;;;;;53.50;36.13;;;-6.90;99.90;;;-6.45;90.98;99247.09;10424003;28;20224;-67
2024/01/12 06:23:03;;;;;;;60.97;37.10;;;-6.90;99.90;;;-6.36;92.45;99250.91;10422853;28;20701;-66
2024/01/12 06:28:08;;;;;;;54.00;36.23;;;-6.80;99.90;;;-6.29;93.29;99239.38;10421050;28;20498;-64
2024/01/12 06:33:15;;;;;;;54.37;37.20;;;-6.80;99.90;;;-6.31;91.98;99235.75;10415540;28;20866;-64
2024/01/12 06:38:18;;;;;;;58.37;35.10;;;-6.90;99.90;;;-6.30;93.30;99226.00;10451005;28;20230;-64
2024/01/12 06:43:22;;;;;;;51.90;35.73;;;-6.90;99.90;;;-6.31;92.44;99229.19;10411537;28;20590;-64
2024/01/12 06:48:26;;;;;;;54.60;36.87;;;-6.90;99.90;;;-6.37;91.21;99219.28;10417498;28;20666;-64
2024/01/12 06:53:29;;;;;;;54.63;36.67;;;-6.90;99.90;;;-6.12;92.33;99220.28;10449745;28;20232;-64
2024/01/12 06:58:33;;;;;;;53.03;34.50;;;-6.90;99.90;;;-6.24;90.22;99221.00;10423454;28;20229;-65
2024/01/12 07:03:36;;;;;;;61.70;35.23;;;-7.00;99.90;;;-6.34;89.13;99233.75;10419494;28;20229;-65
2024/01/12 07:08:40;;;;;;;53.10;36.03;;;-7.00;99.90;;;-6.37;89.91;99241.66;10420332;28;20232;-63
2024/01/12 07:13:44;;;;;;;52.13;35.80;;;-7.00;99.90;;;-6.46;89.66;99236.97;10432606;28;20228;-65
2024/01/12 07:18:48;;;;;;;57.53;37.33;;;-7.10;99.90;;;-6.56;90.03;99234.72;10422941;28;20229;-65
2024/01/12 07:23:51;;;;;;;56.93;34.40;;;-7.10;99.90;;;-6.65;90.26;99245.81;10465043;28;20228;-65
2024/01/12 07:28:57;;;;;;;58.07;36.27;;;-7.20;99.90;;;-6.53;91.32;99259.13;10456917;28;20243;-63
2024/01/12 07:34:01;;;;;;;51.43;32.87;;;-7.20;99.90;;;-6.61;92.21;99256.44;10436203;28;20229;-65
2024/01/12 07:39:04;;;;;;;52.80;34.57;;;-7.20;99.90;;;-6.52;89.99;99264.34;10461913;28;20220;-64
2024/01/12 07:44:11;;;;;;;50.27;32.83;;;-7.10;99.90;;;-6.45;91.28;99268.59;10443835;28;20233;-66
2024/01/12 07:49:14;;;;;;;50.47;33.50;;;-7.10;99.90;;;-6.49;89.92;99261.38;10419950;28;20737;-65
2024/01/12 07:54:17;;;;;;;50.97;34.20;;;-7.00;99.90;;;-6.18;92.23;99271.63;10419606;28;20333;-63
2024/01/12 07:59:22;;;;;;;55.80;34.90;;;-6.80;99.90;;;-6.09;89.98;99277.97;10420290;28;20224;-64
2024/01/12 08:04:25;;;;;;;54.90;34.70;;;-6.60;99.90;;;-5.80;91.04;99271.22;10416683;28;20640;-64
2024/01/12 08:09:28;;;;;;;57.33;34.90;;;-6.40;99.90;;;-5.69;89.00;99268.66;10420190;28;20240;-64
2024/01/12 08:14:33;;;;;;;60.57;38.67;;;-6.30;99.90;;;-5.70;89.75;99279.28;10447634;28;20228;-63
2024/01/12 08:19:36;;;;;;;57.60;38.30;;;-6.20;99.90;;;-5.80;87.55;99293.63;10470663;28;20229;-64
2024/01/12 08:24:39;;;;;;;57.33;37.40;;;-6.20;99.90;;;-5.89;88.89;99305.66;10426270;28;20254;-64
2024/01/12 08:29:44;;;;;;;61.07;38.53;;;-6.30;99.90;;;-5.84;90.56;99306.28;10424864;28;20259;-64
2024/01/12 08:34:48;;;;;;;62.87;39.20;;;-6.30;99.90;;;-5.71;90.10;99309.84;10424823;28;20232;-65
2024/01/12 08:39:52;;;;;;;64.47;39.23;;;-6.10;99.90;;;-5.50;90.96;99307.91;10425243;28;20281;-65
2024/01/12 08:44:56;;;;;;;66.83;39.27;;;-5.90;99.90;;;-5.29;89.30;99317.50;10422808;28;20254;-65
2024/01/12 08:50:00;;;;;;;63.47;40.23;;;-5.80;99.90;;;-5.41;88.60;99312.38;10424005;28;20662;-64
2024/01/12 08:55:07;;;;;;;59.20;37.97;;;-5.80;99.90;;;-5.37;89.27;99325.50;10418072;28;20231;-63
2024/01/12 09:00:14;;;;;;;55.60;36.10;;;-5.80;99.90;;;-5.24;90.68;99328.09;10442859;28;20236;-63
2024/01/12 09:05:17;;;;;;;56.33;36.27;;;-5.70;99.90;;;-5.02;88.43;99327.94;10440832;28;20606;-65
2024/01/12 09:10:21;;;;;;;51.80;33.70;;;-5.60;99.90;;;-4.99;89.28;99333.34;10423521;28;20712;-64
2024/01/12 09:15:26;;;;;;;61.20;36.77;;;-5.50;99.90;;;-4.92;91.13;99334.19;10424135;28;20721;-64
2024/01/12 09:20:32;;;;;;;50.20;33.70;;;-5.40;99.90;;;-4.80;91.33;99330.94;10423795;28;20387;-64
2024/01/12 09:25:37;;;;;;;48.17;31.73;;;-5.30;99.90;;;-4.68;91.47;99342.63;10424529;28;20630;-64
2024/01/12 09:30:42;;;;;;;47.53;29.27;;;-5.20;99.90;;;-4.48;91.10;99339.50;10423881;28;20220;-64
2024/01/12 09:35:45;;;;;;;44.00;30.47;;;-5.00;99.90;;;-4.27;90.25;99341.53;10423687;28;20501;-65
2024/01/12 09:40:49;;;;;;;45.57;27.93;;;-4.70;99.90;;;-4.07;89.64;99346.06;10427209;28;20361;-66
2024/01/12 09:45:59;;;;;;;49.30;30.37;;;-4.60;99.90;;;-4.32;91.23;99330.91;10429494;28;20285;-64
2024/01/12 09:51:04;;;;;;;49.33;29.30;;;-4.60;99.90;;;-3.90;92.17;99328.38;10471228;28;20231;-65
2024/01/12 09:56:08;;;;;;;52.40;31.03;;;-4.40;99.90;;;-3.85;90.31;99334.00;10469691;28;20257;-67
2024/01/12 10:01:13;;;;;;;54.23;31.33;;;-4.40;99.90;;;-3.67;91.38;99326.50;10427414;28;20224;-65
2024/01/12 10:06:16;;;;;;;51.47;31.70;;;-4.30;99.90;;;-3.75;91.09;99322.09;10424002;28;20277;-64
2024/01/12 10:11:19;;;;;;;52.07;33.07;;;-4.20;99.90;;;-3.46;90.09;99326.00;10423562;28;20286;-65
2024/01/12 10:16:28;;;;;;;47.83;30.20;;;-4.00;99.90;;;-3.55;91.76;99326.34;10420261;28;20224;-64
2024/01/12 10:21:39;;;;;;;49.63;31.30;;;-4.00;99.90;;;-3.58;91.45;99326.84;10417547;28;20232;-65
2024/01/12 10:26:43;;;;;;;90.00;48.23;;;-4.00;99.90;;;-3.45;91.57;99329.41;10462857;28;20219;-64
2024/01/12 10:31:48;;;;;;;50.93;32.83;;;-4.00;99.90;;;-3.63;92.18;99308.75;10464390;28;20235;-65
2024/01/12 10:36:57;;;;;;;47.73;31.43;;;-4.00;99.90;;;-3.49;91.93;99293.13;10463020;28;20602;-65
2024/01/12 10:42:03;;;;;;;46.33;29.27;;;-3.90;99.90;;;-3.29;91.79;99290.75;10431887;28;21456;-65
2024/01/12 10:47:14;;;;;;;47.53;30.73;;;-3.70;99.90;;;-2.99;90.89;99306.41;10464219;28;20225;-64
2024/01/12 10:52:32;;;;;;;48.80;30.23;;;-3.50;99.90;;;-2.69;89.70;99287.72;10464599;28;20601;-65
2024/01/12 10:57:36;;;;;;;53.27;32.80;;;-3.40;99.90;;;-2.45;87.95;99275.91;10465236;28;20229;-65
2024/01/12 11:02:41;;;;;;;48.77;31.17;;;-3.20;99.90;;;-2.27;87.82;99290.78;10424004;28;20248;-65
2024/01/12 11:07:46;;;;;;;46.90;29.77;;;-3.00;99.90;;;-2.41;87.87;99285.59;10421776;28;20245;-65
2024/01/12 11:12:50;;;;;;;45.90;31.43;;;-3.00;99.90;;;-2.30;87.71;99272.84;10417281;28;20229;-65
2024/01/12 11:17:58;;;;;;;52.33;32.47;;;-3.00;99.90;;;-1.93;88.02;99282.59;10420088;28;20533;-64
2024/01/12 11:23:02;;;;;;;44.33;29.83;;;-2.70;99.90;;;-1.93;86.57;99266.66;10417793;28;20240;-65
2024/01/12 11:28:09;;;;;;;46.97;31.27;;;-2.60;99.90;;;-1.96;85.56;99271.28;10421569;28;20321;-66
2024/01/12 11:33:18;;;;;;;42.43;28.53;;;-2.60;99.90;;;-2.08;88.43;99264.00;10419077;28;21462;-65
2024/01/12 11:38:22;;;;;;;45.67;30.53;;;-2.60;99.90;;;-2.05;86.75;99253.47;10440798;28;20227;-64
2024/01/12 11:43:26;;;;;;;46.97;31.70;;;-2.60;99.90;;;-1.70;85.70;99257.06;10464944;28;20760;-67
2024/01/12 11:48:32;;;;;;;41.27;29.80;;;-2.50;99.90;;;-1.45;83.16;99241.00;10454147;28;20247;-64
2024/01/12 11:53:38;;;;;;;45.47;29.23;;;-2.30;99.90;;;-1.46;84.51;99262.66;10430695;28;20237;-65
2024/01/12 11:58:41;;;;;;;43.17;28.13;;;-2.20;99.90;;;-1.54;85.15;99245.75;10438505;28;21044;-64
2024/01/12 12:03:49;;;;;;;47.10;29.87;;;-2.20;99.90;;;-1.50;84.85;99232.00;10422900;28;20231;-64
2024/01/12 12:08:55;;;;;;;43.53;27.80;;;-2.00;99.90;;;-1.41;83.11;99239.03;10445284;28;20230;-65
2024/01/12 12:13:59;;;;;;;42.03;28.47;;;-2.10;99.90;;;-1.37;83.20;99226.19;10425686;28;20758;-64
2024/01/12 12:19:04;;;;;;;45.23;27.40;;;-2.10;99.90;;;-1.46;84.87;99224.13;10424708;28;20326;-65
2024/01/12 12:24:07;;;;;;;42.67;26.43;;;-2.10;99.90;;;-1.50;83.55;99222.84;10422729;28;20899;-66
2024/01/12 12:29:11;;;;;;;43.83;27.13;;;-2.20;99.90;;;-1.62;85.91;99218.81;10446379;28;20225;-64
2024/01/12 12:34:17;;;;;;;37.77;25.17;;;-2.20;99.90;;;-1.62;87.00;99196.25;10427326;28;20735;-64
2024/01/12 12:39:21;;;;;;;41.13;25.47;;;-2.20;99.90;;;-1.40;85.53;99185.69;10427028;28;20256;-66
2024/01/12 12:44:24;;;;;;;41.90;24.93;;;-2.10;99.90;;;-1.52;85.65;99198.31;10463420;28;20231;-67
2024/01/12 12:49:37;;;;;;;37.30;25.40;;;-2.00;99.90;;;-1.39;84.29;99184.09;10438763;28;20228;-66
2024/01/12 12:54:40;;;;;;;41.70;26.40;;;-2.00;99.90;;;-1.18;84.73;99183.31;10424646;28;20228;-65
2024/01/12 12:59:44;;;;;;;40.33;26.87;;;-1.80;99.90;;;-0.98;84.33;99176.63;10423812;28;20340;-65
2024/01/12 13:04:48;;;;;;;47.97;27.83;;;-1.70;99.90;;;-0.97;84.15;99185.06;10469498;28;20225;-66
2024/01/12 13:09:53;;;;;;;42.67;28.00;;;-1.50;99.90;;;-0.88;84.47;99165.22;10455867;28;21232;-65
2024/01/12 13:15:00;;;;;;;40.00;25.67;;;-1.60;99.90;;;-0.76;82.38;99155.06;10426561;28;20229;-65
2024/01/12 13:20:07;;;;;;;41.37;27.20;;;-1.30;99.90;;;-0.92;83.27;99158.91;10422246;28;20617;-64
2024/01/12 13:25:11;;;;;;;38.33;24.77;;;-1.50;99.90;;;-0.92;83.68;99158.91;10418747;28;20303;-65
2024/01/12 13:30:15;;;;;;;35.43;23.70;;;-1.40;99.90;;;-0.96;84.48;99137.56;10417431;28;20938;-64
2024/01/12 13:35:21;;;;;;;40.27;24.07;;;-1.40;99.90;;;-1.01;85.62;99123.56;10423174;28;20539;-66
2024/01/12 13:40:24;;;;;;;35.80;23.63;;;-1.50;99.90;;;-0.96;84.13;99122.53;10423723;28;20716;-65
2024/01/12 13:45:27;;;;;;;38.00;23.10;;;-1.40;99.90;;;-0.89;84.99;99128.28;10423945;28;20231;-66
2024/01/12 13:50:32;;;;;;;38.53;23.97;;;-1.30;99.90;;;-1.03;84.29;99125.00;10415579;28;20233;-65
2024/01/12 13:55:35;;;;;;;37.20;23.10;;;-1.40;99.90;;;-0.81;84.01;99122.59;10435108;28;20228;-65
2024/01/12 14:00:38;;;;;;;39.50;24.23;;;-1.30;99.90;;;-0.88;83.91;99127.59;10421923;28;20956;-64
2024/01/12 14:05:43;;;;;;;31.90;22.77;;;-1.50;99.90;;;-0.84;83.79;99123.09;10420458;28;21006;-65
2024/01/12 14:10:49;;;;;;;34.90;23.57;;;-1.30;99.90;;;-0.89;84.71;99105.69;10418777;28;20224;-67
2024/01/12 14:15:53;;;;;;;35.73;23.73;;;-1.50;99.90;;;-1.04;85.04;99118.19;10422065;28;20226;-67
2024/01/12 14:20:57;;;;;;;33.90;23.17;;;-1.50;99.90;;;-0.97;84.98;99124.88;10421967;28;20242;-67
2024/01/12 14:26:00;;;;;;;36.50;23.43;;;-1.40;99.90;;;-0.95;84.65;99109.25;10446314;28;20228;-66
2024/01/12 14:31:05;;;;;;;32.90;22.07;;;-1.50;99.90;;;-1.01;85.13;99126.06;10418994;28;20225;-66
2024/01/12 14:36:09;;;;;;;36.33;23.43;;;-1.60;99.90;;;-0.92;85.58;99124.72;10432748;28;20232;-66
2024/01/12 14:41:13;;;;;;;36.20;23.77;;;-1.50;99.90;;;-1.02;84.90;99116.78;10429561;28;20241;-66
2024/01/12 14:46:16;;;;;;;34.97;22.80;;;-1.70;99.90;;;-0.99;84.88;99117.13;10418914;28;20903;-66
2024/01/12 14:51:20;;;;;;;37.23;23.47;;;-1.80;99.90;;;-0.95;85.84;99124.31;10417507;28;20240;-67
2024/01/12 14:56:24;;;;;;;37.13;23.57;;;-1.60;99.90;;;-1.38;87.34;99134.13;10413063;28;20768;-67
2024/01/12 15:01:30;;;;;;;33.20;23.23;;;-2.00;99.90;;;-1.30;87.91;99142.59;10419026;28;20831;-66
2024/01/12 15:06:34;;;;;;;38.00;24.37;;;-2.00;99.90;;;-1.33;86.91;99136.31;10417264;28;20232;-68
2024/01/12 15:11:39;;;;;;;40.03;25.23;;;-2.10;99.90;;;-1.24;87.27;99152.47;10455071;28;21049;-67
2024/01/12 15:16:44;;;;;;;43.43;26.77;;;-2.10;99.90;;;-1.54;88.52;99150.50;10461296;28;20228;-67
2024/01/12 15:21:48;;;;;;;40.17;25.80;;;-2.20;99.90;;;-1.52;88.18;99156.56;10456802;28;20258;-68
2024/01/12 15:26:51;;;;;;;44.13;26.83;;;-2.30;99.90;;;-1.83;89.09;99135.25;10457104;28;20224;-67
2024/01/12 15:31:55;;;;;;;37.07;24.27;;;-2.40;99.90;;;-1.99;90.70;99129.00;10427570;28;20233;-67
2024/01/12 15:36:59;;;;;;;42.87;27.27;;;-2.60;99.90;;;-1.86;90.71;99139.88;10463945;28;20611;-68
2024/01/12 15:42:02;;;;;;;42.03;26.73;;;-2.60;99.90;;;-2.06;91.27;99137.38;10459894;28;20711;-70
2024/01/12 15:47:05;;;;;;;46.80;30.17;;;-2.70;99.90;;;-2.18;92.38;99134.91;10462547;28;20819;-68
2024/01/12 15:52:12;;;;;;;51.47;31.23;;;-2.80;99.90;;;-2.29;92.52;99152.00;10443851;28;20235;-68
2024/01/12 15:57:15;;;;;;;55.47;33.20;;;-2.90;99.90;;;-2.32;92.58;99146.63;10413604;28;20239;-69
2024/01/12 16:02:18;;;;;;;56.10;35.60;;;-3.00;99.90;;;-2.42;92.05;99143.63;10418483;28;20245;-66
2024/01/12 16:07:23;;;;;;;64.20;37.23;;;-3.10;99.90;;;-2.51;92.12;99142.47;10410245;28;20221;-66
2024/01/12 16:12:26;;;;;;;50.07;32.77;;;-3.20;99.90;;;-2.62;92.12;99142.69;10420274;28;20751;-68
2024/01/12 16:17:29;;;;;;;56.00;33.47;;;-3.30;99.90;;;-2.63;92.82;99148.38;10416162;28;20254;-68
2024/01/12 16:22:34;;;;;;;63.57;36.37;;;-3.30;99.90;;;-2.73;92.93;99147.22;10417292;28;20228;-66
2024/01/12 16:27:37;;;;;;;55.33;34.10;;;-3.40;99.90;;;-2.82;92.95;99145.16;10409290;28;20229;-65
2024/01/12 16:32:40;;;;;;;59.70;36.47;;;-3.50;99.90;;;-2.88;93.54;99144.34;10399461;28;20244;-65
2024/01/12 16:37:45;;;;;;;60.47;35.10;;;-3.60;99.90;;;-2.97;93.46;99154.06;10425935;28;20236;-66
2024/01/12 16:42:48;;;;;;;56.60;35.07;;;-3.60;99.90;;;-3.04;93.87;99166.47;10413545;28;20259;-66
2024/01/12 16:47:52;;;;;;;56.20;36.50;;;-3.70;99.90;;;-3.12;93.40;99154.56;10437990;28;20230;-65
2024/01/12 16:52:56;;;;;;;61.60;36.30;;;-3.80;99.90;;;-3.13;93.95;99155.28;10452230;28;21282;-65
2024/01/12 16:57:59;;;;;;;61.90;35.93;;;-3.80;99.90;;;-3.21;94.42;99152.66;10457839;28;20625;-64
2024/01/12 17:03:03;;;;;;;78.40;45.33;;;-3.90;99.90;;;-3.30;93.75;99143.97;10472416;28;20234;-64
2024/01/12 17:08:07;;;;;;;92.90;50.40;;;-4.00;99.90;;;-3.32;94.83;99147.91;10473255;28;20230;-65
2024/01/12 17:13:11;;;;;;;95.37;52.50;;;-4.00;99.90;;;-3.38;94.12;99152.06;10471618;28;20230;-64
2024/01/12 17:18:14;;;;;;;84.37;48.03;;;-4.00;99.90;;;-3.37;94.93;99158.88;10471262;28;20236;-65
2024/01/12 17:23:29;;;;;;;70.17;41.13;;;-4.00;99.90;;;-3.20;93.98;99164.47;10460779;28;21070;-66
2024/01/12 17:28:32;;;;;;;70.83;43.63;;;-3.90;99.90;;;-3.18;94.55;99168.09;10430843;28;20232;-66
2024/01/12 17:33:35;;;;;;;76.07;45.40;;;-3.80;99.90;;;-3.05;94.09;99169.69;10450021;28;20226;-64
2024/01/12 17:38:40;;;;;;;75.53;48.37;;;-3.70;99.90;;;-2.85;94.56;99163.16;10443540;28;20347;-67
2024/01/12 17:43:43;;;;;;;107.57;68.57;;;-3.60;99.90;;;-2.72;92.66;99168.13;10458196;28;20239;-65
2024/01/12 17:48:46;;;;;;;165.17;128.20;;;-3.50;99.90;;;-2.56;92.15;99176.00;10443564;28;20589;-63
2024/01/12 17:53:52;;;;;;;55.33;37.20;;;-3.30;99.90;;;-2.59;92.17;99178.13;10474392;28;20334;-65
2024/01/12 17:58:56;;;;;;;67.77;42.80;;;-3.40;99.90;;;-2.70;92.41;99178.34;10473352;28;21402;-66
2024/01/12 18:03:59;;;;;;;73.13;43.17;;;-3.40;99.90;;;-2.62;93.09;99190.25;10478217;28;20271;-63
2024/01/12 18:09:04;;;;;;;60.03;37.80;;;-3.30;99.90;;;-2.61;93.41;99184.53;10472603;28;21548;-67
2024/01/12 18:14:09;;;;;;;53.67;35.67;;;-3.30;99.90;;;-2.59;93.27;99189.03;10454964;28;20224;-65
2024/01/12 18:19:12;;;;;;;48.90;31.87;;;-3.30;99.90;;;-2.55;92.87;99180.28;10415245;28;20229;-65
2024/01/12 18:24:17;;;;;;;53.97;32.53;;;-3.40;99.90;;;-2.54;92.19;99187.13;10452559;28;20248;-66
2024/01/12 18:29:20;;;;;;;51.87;33.57;;;-3.30;99.90;;;-2.69;92.62;99188.53;10501350;28;20286;-66
2024/01/12 18:34:28;;;;;;;63.13;38.53;;;-3.40;99.90;;;-2.63;93.41;99198.44;10412058;28;20698;-65
2024/01/12 18:39:32;;;;;;;75.27;47.00;;;-3.30;99.90;;;-2.53;92.82;99207.31;10412857;28;20325;-63
2024/01/12 18:44:37;;;;;;;86.67;52.10;;;-3.30;99.90;;;-2.54;93.06;99209.66;10481689;28;20220;-64
2024/01/12 18:49:40;;;;;;;82.90;58.83;;;-3.20;99.90;;;-2.51;93.78;99190.03;10475302;28;20769;-64
2024/01/12 18:54:44;;;;;;;56.50;35.90;;;-3.20;99.90;;;-2.44;92.01;99202.59;10492297;28;20585;-64
2024/01/12 18:59:48;;;;;;;60.03;37.63;;;-3.20;99.90;;;-2.56;93.98;99196.03;10483815;28;20294;-64
2024/01/12 19:04:51;;;;;;;54.90;35.33;;;-3.20;99.90;;;-2.46;93.98;99195.59;10484835;28;20220;-64
2024/01/12 19:09:55;;;;;;;56.77;34.20;;;-3.20;99.90;;;-2.44;92.93;99192.59;10487417;28;20618;-64
2024/01/12 19:14:58;;;;;;;53.33;36.00;;;-3.20;99.90;;;-2.51;93.68;99190.03;10453498;28;20310;-63
2024/01/12 19:20:02;;;;;;;58.63;37.43;;;-3.20;99.90;;;-2.62;94.96;99196.13;10484187;28;20669;-64
2024/01/12 19:25:07;;;;;;;54.90;35.57;;;-3.20;99.90;;;-2.56;94.22;99201.03;10474044;28;20931;-64
2024/01/12 19:30:12;;;;;;;56.90;34.90;;;-3.20;99.90;;;-2.50;94.25;99187.69;10444871;28;20232;-64
2024/01/12 19:35:15;;;;;;;56.30;36.37;;;-3.10;99.90;;;-2.38;94.21;99167.44;10408308;28;20237;-65
2024/01/12 19:40:20;;;;;;;65.63;38.07;;;-3.10;99.90;;;-2.32;94.43;99169.13;10406208;28;20259;-64
2024/01/12 19:45:23;;;;;;;58.53;38.40;;;-3.10;99.90;;;-2.38;95.31;99170.84;10462091;28;20243;-65
2024/01/12 19:50:26;;;;;;;63.07;39.23;;;-3.00;99.90;;;-2.42;95.08;99187.78;10477425;28;20237;-63
2024/01/12 19:55:31;;;;;;;61.00;39.80;;;-3.10;99.90;;;-2.38;94.87;99179.94;10461702;28;20230;-65
2024/01/12 20:00:34;;;;;;;62.87;39.97;;;-3.00;99.90;;;-2.25;94.85;99174.91;10480509;28;20224;-65
2024/01/12 20:05:39;;;;;;;61.83;38.63;;;-2.90;99.90;;;-2.21;94.45;99183.00;10483973;28;20410;-64
2024/01/12 20:10:45;;;;;;;63.23;38.70;;;-2.90;99.90;;;-2.07;95.08;99180.63;10496564;28;20229;-64
2024/01/12 20:15:48;;;;;;;54.77;36.33;;;-2.90;99.90;;;-2.11;93.89;99185.97;10491565;28;20226;-64
2024/01/12 20:20:51;;;;;;;58.57;37.90;;;-2.80;99.90;;;-2.09;93.93;99191.16;10492628;28;20232;-63
2024/01/12 20:25:56;;;;;;;59.87;38.87;;;-2.80;99.90;;;-2.15;94.39;99182.88;10494145;28;20297;-63
2024/01/12 20:30:59;;;;;;;56.00;36.20;;;-2.80;99.90;;;-2.01;94.08;99183.03;10489846;28;20216;-63
2024/01/12 20:36:02;;;;;;;53.67;36.90;;;-2.70;99.90;;;-1.99;95.59;99179.13;10494153;28;20228;-63
2024/01/12 20:41:07;;;;;;;57.07;36.97;;;-2.70;99.90;;;-1.92;94.13;99178.28;10496493;28;20707;-63